Terminal Aerodrome Forecast
Issued by NWS

Home | Current Version | Previous Version | Text Only | Print | Product List | Glossary On
Versions: 1 2 3 4 5 6 7 8 9 10 11 12 13 14 15 16 17 18 19
000
FTUS43 KMQT 281552 AAA
TAFSAW
TAF AMD
KSAW 281552Z 2816/2912 20008KT P6SM SCT020 OVC060
      TEMPO 2816/2818 BKN020
     FM281800 18011G17KT P6SM BKN025
     FM290300 18011KT 6SM -SN OVC014
     FM290600 18009KT 2SM -SN OVC008
     FM290900 19004KT 1 1/2SM -SN OVC008
     FM291000 22004KT 3SM -SN OVC008
      AMD LTD TO CLD VIS AND WIND 2903/2911=

USA.gov is the U.S. government's official web portal to all federal, state and local government web resources and services.